首页
METAR-TAF:

METAR-TAF

机场 :

葉梅利亞諾夫國際機場

克拉斯諾亞爾斯克, 俄罗斯

纬度: 56-10-18N, 经度: 092-29-36E, 海拔: 287米

当前天气观测

该预报发布于35分钟前的07:30 UTC
风速10节,风向西
温度 30°C
湿度 38%
气压 1004 hPa
能见度10公里或以上
1500米以下无云,无积雨云

METAR: UNKL 160730Z 27005MPS CAVOK 30/14 Q1004 R29/CLRD65 TEMPO 26008MPS RMK QFE728

时间: 15:05 (08:05 UTC)

预报

该预报发布于3小时和11分钟前的04:54 UTC
预报有效从16日的 06点(UTC)到 17日的 06点(UTC)
风速10节,风向西,有时为23节阵风
能见度10公里或以上
1500米以下无云,无积雨云
从 16日的 1600点(UTC)
风速6节,风向西转西北,有时为16节阵风
能見度: 7000
多云层高于1600英尺, 积雨云.
小阵雨
成为
从 16日的 20点(UTC)到 16日的 24点(UTC)
雷暴, 小雨
成为
从 17日的 01点(UTC)到 17日的 05点(UTC)

TAF: UNKL 160454Z 1606/1706 28005G12MPS CAVOK TX32/1607Z TN12/1621Z FM161600 29003G08MPS 7000 -SHRA BKN016CB BECMG 1620/1624 -TSRA BECMG 1701/1705 NSW

超过4000个机场的气象观测和天气预报(METAR&TAF报告)。

可查询的气象台以黄色和红色小点在地图上表示。

将鼠标移到小点上方,可查看气象台名称。

然后点击查看天气观测和预报。

如需切换地图:点击带黑十字的绿色按钮放大地图;点击带横线的绿色按钮缩小地图;或者点击绿色箭头查看邻近地区的地图。


METAR-TAF: